sensor_id;sensor_type;location;lat;lon;timestamp;P1;durP1;ratioP1;P2;durP2;ratioP2
69244;SDS011;56357;52.304;4.870;2022-12-29T00:02:15;2.78;;;0.60;;
69244;SDS011;56357;52.304;4.870;2022-12-29T00:04:42;3.05;;;0.50;;
69244;SDS011;56357;52.304;4.870;2022-12-29T00:07:09;2.65;;;0.40;;
69244;SDS011;56357;52.304;4.870;2022-12-29T00:09:36;2.88;;;0.60;;
69244;SDS011;56357;52.304;4.870;2022-12-29T00:12:03;3.30;;;0.50;;
69244;SDS011;56357;52.304;4.870;2022-12-29T00:14:30;1.90;;;0.30;;
69244;SDS011;56357;52.304;4.870;2022-12-29T00:17:14;2.38;;;0.40;;
69244;SDS011;56357;52.304;4.870;2022-12-29T00:19:41;2.72;;;0.43;;
69244;SDS011;56357;52.304;4.870;2022-12-29T00:22:25;2.30;;;0.40;;
69244;SDS011;56357;52.304;4.870;2022-12-29T00:25:09;2.27;;;0.30;;
69244;SDS011;56357;52.304;4.870;2022-12-29T00:27:55;2.17;;;0.38;;
69244;SDS011;56357;52.304;4.870;2022-12-29T00:30:38;2.40;;;0.45;;
69244;SDS011;56357;52.304;4.870;2022-12-29T00:33:23;3.00;;;0.50;;
69244;SDS011;56357;52.304;4.870;2022-12-29T00:36:21;3.05;;;0.50;;
69244;SDS011;56357;52.304;4.870;2022-12-29T00:39:02;3.97;;;0.50;;
69244;SDS011;56357;52.304;4.870;2022-12-29T00:41:50;2.35;;;0.40;;
69244;SDS011;56357;52.304;4.870;2022-12-29T00:44:34;2.40;;;0.30;;
69244;SDS011;56357;52.304;4.870;2022-12-29T00:47:00;2.60;;;0.30;;
69244;SDS011;56357;52.304;4.870;2022-12-29T00:49:29;2.85;;;0.40;;
69244;SDS011;56357;52.304;4.870;2022-12-29T00:54:24;3.67;;;0.73;;
69244;SDS011;56357;52.304;4.870;2022-12-29T00:56:51;2.25;;;0.40;;
69244;SDS011;56357;52.304;4.870;2022-12-29T00:59:18;2.97;;;0.43;;
69244;SDS011;56357;52.304;4.870;2022-12-29T01:01:46;2.45;;;0.40;;
69244;SDS011;56357;52.304;4.870;2022-12-29T01:04:13;2.47;;;0.60;;
69244;SDS011;56357;52.304;4.870;2022-12-29T01:06:40;2.20;;;0.40;;
69244;SDS011;56357;52.304;4.870;2022-12-29T01:09:07;1.92;;;0.40;;
69244;SDS011;56357;52.304;4.870;2022-12-29T01:11:52;2.95;;;0.40;;
69244;SDS011;56357;52.304;4.870;2022-12-29T01:14:19;2.55;;;0.40;;
69244;SDS011;56357;52.304;4.870;2022-12-29T01:16:46;2.37;;;0.40;;
69244;SDS011;56357;52.304;4.870;2022-12-29T01:19:13;2.10;;;0.28;;
69244;SDS011;56357;52.304;4.870;2022-12-29T01:21:41;2.25;;;0.32;;
69244;SDS011;56357;52.304;4.870;2022-12-29T01:24:07;2.10;;;0.43;;
69244;SDS011;56357;52.304;4.870;2022-12-29T01:26:34;2.35;;;0.30;;
69244;SDS011;56357;52.304;4.870;2022-12-29T01:29:01;2.57;;;0.33;;
69244;SDS011;56357;52.304;4.870;2022-12-29T01:31:27;2.10;;;0.30;;
69244;SDS011;56357;52.304;4.870;2022-12-29T01:33:54;2.60;;;0.40;;
69244;SDS011;56357;52.304;4.870;2022-12-29T01:36:20;2.30;;;0.40;;
69244;SDS011;56357;52.304;4.870;2022-12-29T01:38:46;2.22;;;0.40;;
69244;SDS011;56357;52.304;4.870;2022-12-29T01:41:14;3.57;;;0.40;;
69244;SDS011;56357;52.304;4.870;2022-12-29T01:46:28;3.15;;;0.40;;
69244;SDS011;56357;52.304;4.870;2022-12-29T01:51:47;4.15;;;0.50;;
69244;SDS011;56357;52.304;4.870;2022-12-29T01:54:18;2.23;;;0.50;;
69244;SDS011;56357;52.304;4.870;2022-12-29T01:56:51;2.30;;;0.35;;
69244;SDS011;56357;52.304;4.870;2022-12-29T01:59:20;2.40;;;0.40;;
69244;SDS011;56357;52.304;4.870;2022-12-29T02:01:51;2.30;;;0.30;;
69244;SDS011;56357;52.304;4.870;2022-12-29T02:04:18;2.75;;;0.82;;
69244;SDS011;56357;52.304;4.870;2022-12-29T02:07:03;2.80;;;0.40;;
69244;SDS011;56357;52.304;4.870;2022-12-29T02:09:32;1.92;;;0.30;;
69244;SDS011;56357;52.304;4.870;2022-12-29T02:11:59;2.42;;;0.35;;
69244;SDS011;56357;52.304;4.870;2022-12-29T02:14:26;2.80;;;0.50;;
69244;SDS011;56357;52.304;4.870;2022-12-29T02:19:58;2.63;;;0.47;;
69244;SDS011;56357;52.304;4.870;2022-12-29T02:26:04;3.45;;;0.50;;
69244;SDS011;56357;52.304;4.870;2022-12-29T02:31:49;2.42;;;0.30;;
69244;SDS011;56357;52.304;4.870;2022-12-29T02:34:30;2.53;;;0.47;;
69244;SDS011;56357;52.304;4.870;2022-12-29T02:37:24;2.40;;;0.40;;
69244;SDS011;56357;52.304;4.870;2022-12-29T02:40:14;3.10;;;0.40;;
69244;SDS011;56357;52.304;4.870;2022-12-29T02:43:01;2.78;;;0.52;;
69244;SDS011;56357;52.304;4.870;2022-12-29T02:51:11;3.08;;;0.50;;
69244;SDS011;56357;52.304;4.870;2022-12-29T02:53:43;2.50;;;0.30;;
69244;SDS011;56357;52.304;4.870;2022-12-29T02:56:28;3.08;;;0.40;;
69244;SDS011;56357;52.304;4.870;2022-12-29T02:58:54;3.78;;;0.50;;
69244;SDS011;56357;52.304;4.870;2022-12-29T03:01:28;1.87;;;0.33;;
69244;SDS011;56357;52.304;4.870;2022-12-29T03:06:53;3.08;;;0.47;;
69244;SDS011;56357;52.304;4.870;2022-12-29T03:15:05;2.33;;;0.30;;
69244;SDS011;56357;52.304;4.870;2022-12-29T03:17:58;2.15;;;0.30;;
69244;SDS011;56357;52.304;4.870;2022-12-29T03:20:45;2.97;;;0.38;;
69244;SDS011;56357;52.304;4.870;2022-12-29T03:23:18;3.40;;;0.40;;
69244;SDS011;56357;52.304;4.870;2022-12-29T03:25:48;2.80;;;0.43;;
69244;SDS011;56357;52.304;4.870;2022-12-29T03:28:20;2.63;;;0.30;;
69244;SDS011;56357;52.304;4.870;2022-12-29T03:30:49;1.83;;;0.20;;
69244;SDS011;56357;52.304;4.870;2022-12-29T03:33:17;3.70;;;0.65;;
69244;SDS011;56357;52.304;4.870;2022-12-29T03:35:47;4.25;;;0.32;;
69244;SDS011;56357;52.304;4.870;2022-12-29T03:41:05;4.60;;;0.57;;
69244;SDS011;56357;52.304;4.870;2022-12-29T03:43:35;3.78;;;0.50;;
69244;SDS011;56357;52.304;4.870;2022-12-29T03:46:01;3.63;;;0.38;;
69244;SDS011;56357;52.304;4.870;2022-12-29T03:48:28;4.28;;;0.40;;
69244;SDS011;56357;52.304;4.870;2022-12-29T03:50:54;3.95;;;0.30;;
69244;SDS011;56357;52.304;4.870;2022-12-29T03:53:21;3.27;;;0.40;;
69244;SDS011;56357;52.304;4.870;2022-12-29T03:55:47;2.65;;;0.30;;
69244;SDS011;56357;52.304;4.870;2022-12-29T03:58:14;3.15;;;0.30;;
69244;SDS011;56357;52.304;4.870;2022-12-29T04:00:40;7.30;;;0.52;;
69244;SDS011;56357;52.304;4.870;2022-12-29T04:03:07;3.05;;;0.40;;
69244;SDS011;56357;52.304;4.870;2022-12-29T04:05:33;3.60;;;0.50;;
69244;SDS011;56357;52.304;4.870;2022-12-29T04:08:00;4.05;;;0.40;;
69244;SDS011;56357;52.304;4.870;2022-12-29T04:10:26;3.15;;;0.50;;
69244;SDS011;56357;52.304;4.870;2022-12-29T04:12:53;4.30;;;0.60;;
69244;SDS011;56357;52.304;4.870;2022-12-29T04:15:19;4.55;;;0.30;;
69244;SDS011;56357;52.304;4.870;2022-12-29T04:17:45;5.07;;;0.60;;
69244;SDS011;56357;52.304;4.870;2022-12-29T04:20:12;3.00;;;0.40;;
69244;SDS011;56357;52.304;4.870;2022-12-29T04:23:00;3.78;;;0.70;;
69244;SDS011;56357;52.304;4.870;2022-12-29T04:25:30;4.18;;;0.60;;
69244;SDS011;56357;52.304;4.870;2022-12-29T04:27:57;3.95;;;0.40;;
69244;SDS011;56357;52.304;4.870;2022-12-29T04:30:24;3.83;;;0.47;;
69244;SDS011;56357;52.304;4.870;2022-12-29T04:32:50;6.68;;;0.57;;
69244;SDS011;56357;52.304;4.870;2022-12-29T04:35:17;4.00;;;0.45;;
69244;SDS011;56357;52.304;4.870;2022-12-29T04:37:43;5.88;;;0.65;;
69244;SDS011;56357;52.304;4.870;2022-12-29T04:40:10;3.58;;;0.40;;
69244;SDS011;56357;52.304;4.870;2022-12-29T04:42:37;3.47;;;0.50;;
69244;SDS011;56357;52.304;4.870;2022-12-29T04:45:03;4.13;;;0.55;;
69244;SDS011;56357;52.304;4.870;2022-12-29T04:47:31;5.03;;;0.50;;
69244;SDS011;56357;52.304;4.870;2022-12-29T04:49:57;3.42;;;0.40;;
69244;SDS011;56357;52.304;4.870;2022-12-29T04:52:23;5.15;;;0.32;;
69244;SDS011;56357;52.304;4.870;2022-12-29T04:54:50;3.80;;;0.43;;
69244;SDS011;56357;52.304;4.870;2022-12-29T04:57:16;6.75;;;0.43;;
69244;SDS011;56357;52.304;4.870;2022-12-29T04:59:43;4.88;;;0.52;;
69244;SDS011;56357;52.304;4.870;2022-12-29T05:02:09;6.55;;;0.63;;
69244;SDS011;56357;52.304;4.870;2022-12-29T05:04:35;5.18;;;0.40;;
69244;SDS011;56357;52.304;4.870;2022-12-29T05:07:02;4.43;;;0.40;;
69244;SDS011;56357;52.304;4.870;2022-12-29T05:09:28;6.45;;;0.80;;
69244;SDS011;56357;52.304;4.870;2022-12-29T05:11:55;7.25;;;0.60;;
69244;SDS011;56357;52.304;4.870;2022-12-29T05:14:21;5.68;;;0.70;;
69244;SDS011;56357;52.304;4.870;2022-12-29T05:16:48;6.53;;;0.60;;
69244;SDS011;56357;52.304;4.870;2022-12-29T05:19:14;4.87;;;0.40;;
69244;SDS011;56357;52.304;4.870;2022-12-29T05:21:41;5.70;;;0.60;;
69244;SDS011;56357;52.304;4.870;2022-12-29T05:24:08;5.20;;;0.40;;
69244;SDS011;56357;52.304;4.870;2022-12-29T05:26:35;3.13;;;0.30;;
69244;SDS011;56357;52.304;4.870;2022-12-29T05:29:01;7.50;;;0.85;;
69244;SDS011;56357;52.304;4.870;2022-12-29T05:31:28;7.43;;;0.50;;
69244;SDS011;56357;52.304;4.870;2022-12-29T05:33:54;6.28;;;0.63;;
69244;SDS011;56357;52.304;4.870;2022-12-29T05:36:21;7.82;;;1.13;;
69244;SDS011;56357;52.304;4.870;2022-12-29T05:38:48;6.45;;;0.57;;
69244;SDS011;56357;52.304;4.870;2022-12-29T05:41:14;6.15;;;0.57;;
69244;SDS011;56357;52.304;4.870;2022-12-29T05:43:41;5.20;;;1.00;;
69244;SDS011;56357;52.304;4.870;2022-12-29T05:46:07;4.25;;;0.35;;
69244;SDS011;56357;52.304;4.870;2022-12-29T05:48:34;4.75;;;0.32;;
69244;SDS011;56357;52.304;4.870;2022-12-29T05:51:00;4.57;;;0.70;;
69244;SDS011;56357;52.304;4.870;2022-12-29T05:53:26;4.68;;;0.40;;
69244;SDS011;56357;52.304;4.870;2022-12-29T05:55:53;4.47;;;0.50;;
69244;SDS011;56357;52.304;4.870;2022-12-29T05:58:19;7.10;;;0.50;;
69244;SDS011;56357;52.304;4.870;2022-12-29T06:00:46;4.55;;;0.50;;
69244;SDS011;56357;52.304;4.870;2022-12-29T06:03:13;7.13;;;0.60;;
69244;SDS011;56357;52.304;4.870;2022-12-29T06:05:39;7.22;;;0.50;;
69244;SDS011;56357;52.304;4.870;2022-12-29T06:08:05;5.13;;;0.53;;
69244;SDS011;56357;52.304;4.870;2022-12-29T06:10:32;6.88;;;0.63;;
69244;SDS011;56357;52.304;4.870;2022-12-29T06:12:58;6.82;;;0.70;;
69244;SDS011;56357;52.304;4.870;2022-12-29T06:15:24;4.97;;;0.60;;
69244;SDS011;56357;52.304;4.870;2022-12-29T06:17:51;6.47;;;0.70;;
69244;SDS011;56357;52.304;4.870;2022-12-29T06:20:17;7.97;;;0.57;;
69244;SDS011;56357;52.304;4.870;2022-12-29T06:22:44;5.97;;;0.50;;
69244;SDS011;56357;52.304;4.870;2022-12-29T06:25:11;6.18;;;0.63;;
69244;SDS011;56357;52.304;4.870;2022-12-29T06:27:38;4.38;;;0.50;;
69244;SDS011;56357;52.304;4.870;2022-12-29T06:30:04;5.00;;;0.75;;
69244;SDS011;56357;52.304;4.870;2022-12-29T06:32:31;6.67;;;1.30;;
69244;SDS011;56357;52.304;4.870;2022-12-29T06:34:57;5.80;;;0.75;;
69244;SDS011;56357;52.304;4.870;2022-12-29T06:37:24;6.07;;;0.82;;
69244;SDS011;56357;52.304;4.870;2022-12-29T06:39:51;5.10;;;0.68;;
69244;SDS011;56357;52.304;4.870;2022-12-29T06:42:17;6.20;;;0.80;;
69244;SDS011;56357;52.304;4.870;2022-12-29T06:44:43;6.47;;;0.50;;
69244;SDS011;56357;52.304;4.870;2022-12-29T06:47:10;9.90;;;1.15;;
69244;SDS011;56357;52.304;4.870;2022-12-29T06:49:37;6.18;;;0.65;;
69244;SDS011;56357;52.304;4.870;2022-12-29T06:52:04;6.95;;;0.70;;
69244;SDS011;56357;52.304;4.870;2022-12-29T06:54:31;8.68;;;0.85;;
69244;SDS011;56357;52.304;4.870;2022-12-29T06:56:57;8.77;;;1.00;;
69244;SDS011;56357;52.304;4.870;2022-12-29T06:59:24;8.82;;;0.70;;
69244;SDS011;56357;52.304;4.870;2022-12-29T07:01:51;10.63;;;1.15;;
69244;SDS011;56357;52.304;4.870;2022-12-29T07:04:18;7.53;;;0.90;;
69244;SDS011;56357;52.304;4.870;2022-12-29T07:06:44;8.13;;;1.05;;
69244;SDS011;56357;52.304;4.870;2022-12-29T07:09:11;8.53;;;1.00;;
69244;SDS011;56357;52.304;4.870;2022-12-29T07:11:37;8.45;;;0.98;;
69244;SDS011;56357;52.304;4.870;2022-12-29T07:14:04;7.53;;;0.52;;
69244;SDS011;56357;52.304;4.870;2022-12-29T07:16:31;6.10;;;0.60;;
69244;SDS011;56357;52.304;4.870;2022-12-29T07:18:59;7.28;;;0.63;;
69244;SDS011;56357;52.304;4.870;2022-12-29T07:21:25;9.53;;;1.33;;
69244;SDS011;56357;52.304;4.870;2022-12-29T07:23:53;10.30;;;0.75;;
69244;SDS011;56357;52.304;4.870;2022-12-29T07:26:20;6.07;;;0.80;;
69244;SDS011;56357;52.304;4.870;2022-12-29T07:28:46;9.32;;;0.90;;
69244;SDS011;56357;52.304;4.870;2022-12-29T07:31:17;11.55;;;1.00;;
69244;SDS011;56357;52.304;4.870;2022-12-29T07:33:45;10.53;;;0.90;;
69244;SDS011;56357;52.304;4.870;2022-12-29T07:36:12;10.02;;;0.85;;
69244;SDS011;56357;52.304;4.870;2022-12-29T07:38:40;7.18;;;0.73;;
69244;SDS011;56357;52.304;4.870;2022-12-29T07:41:07;7.05;;;0.70;;
69244;SDS011;56357;52.304;4.870;2022-12-29T07:43:34;7.28;;;0.73;;
69244;SDS011;56357;52.304;4.870;2022-12-29T07:46:01;8.13;;;1.20;;
69244;SDS011;56357;52.304;4.870;2022-12-29T07:48:27;9.77;;;1.02;;
69244;SDS011;56357;52.304;4.870;2022-12-29T07:50:54;8.75;;;1.33;;
69244;SDS011;56357;52.304;4.870;2022-12-29T07:53:20;11.18;;;1.65;;
69244;SDS011;56357;52.304;4.870;2022-12-29T07:55:47;9.18;;;1.10;;
69244;SDS011;56357;52.304;4.870;2022-12-29T07:58:14;7.10;;;1.17;;
69244;SDS011;56357;52.304;4.870;2022-12-29T08:00:40;10.45;;;0.80;;
69244;SDS011;56357;52.304;4.870;2022-12-29T08:03:06;6.28;;;0.65;;
69244;SDS011;56357;52.304;4.870;2022-12-29T08:05:33;9.82;;;1.23;;
69244;SDS011;56357;52.304;4.870;2022-12-29T08:08:00;9.75;;;1.15;;
69244;SDS011;56357;52.304;4.870;2022-12-29T08:10:26;11.47;;;0.77;;
69244;SDS011;56357;52.304;4.870;2022-12-29T08:12:53;8.80;;;1.00;;
69244;SDS011;56357;52.304;4.870;2022-12-29T08:15:19;11.38;;;0.77;;
69244;SDS011;56357;52.304;4.870;2022-12-29T08:17:45;9.82;;;1.20;;
69244;SDS011;56357;52.304;4.870;2022-12-29T08:20:12;7.80;;;0.80;;
69244;SDS011;56357;52.304;4.870;2022-12-29T08:22:39;6.57;;;1.30;;
69244;SDS011;56357;52.304;4.870;2022-12-29T08:25:05;8.23;;;1.27;;
69244;SDS011;56357;52.304;4.870;2022-12-29T08:27:32;10.30;;;0.95;;
69244;SDS011;56357;52.304;4.870;2022-12-29T08:29:59;11.68;;;1.52;;
69244;SDS011;56357;52.304;4.870;2022-12-29T08:32:25;12.55;;;0.95;;
69244;SDS011;56357;52.304;4.870;2022-12-29T08:34:53;10.03;;;1.23;;
69244;SDS011;56357;52.304;4.870;2022-12-29T08:37:19;8.88;;;0.90;;
69244;SDS011;56357;52.304;4.870;2022-12-29T08:39:46;10.48;;;1.08;;
69244;SDS011;56357;52.304;4.870;2022-12-29T08:42:13;7.80;;;0.70;;
69244;SDS011;56357;52.304;4.870;2022-12-29T08:44:40;10.10;;;0.95;;
69244;SDS011;56357;52.304;4.870;2022-12-29T08:47:06;10.97;;;1.10;;
69244;SDS011;56357;52.304;4.870;2022-12-29T08:49:33;9.65;;;1.20;;
69244;SDS011;56357;52.304;4.870;2022-12-29T08:51:59;7.65;;;1.15;;
69244;SDS011;56357;52.304;4.870;2022-12-29T08:54:25;13.05;;;1.13;;
69244;SDS011;56357;52.304;4.870;2022-12-29T08:56:52;9.23;;;1.00;;
69244;SDS011;56357;52.304;4.870;2022-12-29T08:59:18;9.07;;;1.40;;
69244;SDS011;56357;52.304;4.870;2022-12-29T09:01:45;8.40;;;1.23;;
69244;SDS011;56357;52.304;4.870;2022-12-29T09:04:11;11.43;;;1.10;;
69244;SDS011;56357;52.304;4.870;2022-12-29T09:06:38;7.05;;;0.80;;
69244;SDS011;56357;52.304;4.870;2022-12-29T09:09:05;7.75;;;0.77;;
69244;SDS011;56357;52.304;4.870;2022-12-29T09:11:31;8.47;;;1.00;;
69244;SDS011;56357;52.304;4.870;2022-12-29T09:13:58;7.07;;;0.85;;
69244;SDS011;56357;52.304;4.870;2022-12-29T09:16:24;11.68;;;1.27;;
69244;SDS011;56357;52.304;4.870;2022-12-29T09:18:51;7.57;;;1.30;;
69244;SDS011;56357;52.304;4.870;2022-12-29T09:21:18;8.98;;;0.90;;
69244;SDS011;56357;52.304;4.870;2022-12-29T09:23:45;9.10;;;0.87;;
69244;SDS011;56357;52.304;4.870;2022-12-29T09:26:11;8.75;;;0.70;;
69244;SDS011;56357;52.304;4.870;2022-12-29T09:28:38;9.98;;;1.05;;
69244;SDS011;56357;52.304;4.870;2022-12-29T09:31:05;8.02;;;0.85;;
69244;SDS011;56357;52.304;4.870;2022-12-29T09:33:32;9.93;;;0.80;;
69244;SDS011;56357;52.304;4.870;2022-12-29T09:35:59;6.25;;;1.08;;
69244;SDS011;56357;52.304;4.870;2022-12-29T09:38:26;7.97;;;0.98;;
69244;SDS011;56357;52.304;4.870;2022-12-29T09:40:54;11.93;;;1.35;;
69244;SDS011;56357;52.304;4.870;2022-12-29T09:43:32;7.95;;;0.60;;
69244;SDS011;56357;52.304;4.870;2022-12-29T09:46:25;9.80;;;0.88;;
69244;SDS011;56357;52.304;4.870;2022-12-29T09:49:03;6.60;;;0.80;;
69244;SDS011;56357;52.304;4.870;2022-12-29T09:51:35;7.15;;;0.80;;
69244;SDS011;56357;52.304;4.870;2022-12-29T09:54:13;7.75;;;1.08;;
69244;SDS011;56357;52.304;4.870;2022-12-29T09:56:49;6.13;;;0.52;;
69244;SDS011;56357;52.304;4.870;2022-12-29T09:59:19;8.75;;;0.90;;
69244;SDS011;56357;52.304;4.870;2022-12-29T10:04:22;6.95;;;0.60;;
69244;SDS011;56357;52.304;4.870;2022-12-29T10:06:53;6.45;;;0.60;;
69244;SDS011;56357;52.304;4.870;2022-12-29T10:09:33;10.00;;;0.98;;
69244;SDS011;56357;52.304;4.870;2022-12-29T10:18:18;5.95;;;0.80;;
69244;SDS011;56357;52.304;4.870;2022-12-29T10:23:50;8.73;;;0.93;;
69244;SDS011;56357;52.304;4.870;2022-12-29T10:26:23;6.07;;;0.73;;
69244;SDS011;56357;52.304;4.870;2022-12-29T10:31:33;5.88;;;0.70;;
69244;SDS011;56357;52.304;4.870;2022-12-29T10:34:26;8.32;;;0.90;;
69244;SDS011;56357;52.304;4.870;2022-12-29T10:36:58;5.13;;;0.75;;
69244;SDS011;56357;52.304;4.870;2022-12-29T10:45:21;6.93;;;0.80;;
69244;SDS011;56357;52.304;4.870;2022-12-29T10:47:54;8.20;;;0.90;;
69244;SDS011;56357;52.304;4.870;2022-12-29T10:50:26;8.50;;;1.13;;
69244;SDS011;56357;52.304;4.870;2022-12-29T10:52:54;6.68;;;0.80;;
69244;SDS011;56357;52.304;4.870;2022-12-29T10:55:26;5.57;;;0.80;;
69244;SDS011;56357;52.304;4.870;2022-12-29T10:57:59;7.35;;;0.90;;
69244;SDS011;56357;52.304;4.870;2022-12-29T11:00:30;6.82;;;1.00;;
69244;SDS011;56357;52.304;4.870;2022-12-29T11:06:03;6.72;;;0.95;;
69244;SDS011;56357;52.304;4.870;2022-12-29T11:08:33;8.25;;;1.00;;
69244;SDS011;56357;52.304;4.870;2022-12-29T11:11:04;6.15;;;0.98;;
69244;SDS011;56357;52.304;4.870;2022-12-29T11:13:34;6.80;;;0.85;;
69244;SDS011;56357;52.304;4.870;2022-12-29T11:16:12;6.95;;;0.95;;
69244;SDS011;56357;52.304;4.870;2022-12-29T11:18:39;6.75;;;0.82;;
69244;SDS011;56357;52.304;4.870;2022-12-29T11:24:19;5.68;;;1.17;;
69244;SDS011;56357;52.304;4.870;2022-12-29T11:26:55;5.13;;;0.75;;
69244;SDS011;56357;52.304;4.870;2022-12-29T11:29:38;8.15;;;1.08;;
69244;SDS011;56357;52.304;4.870;2022-12-29T11:32:16;6.47;;;0.90;;
69244;SDS011;56357;52.304;4.870;2022-12-29T11:34:44;5.85;;;0.80;;
69244;SDS011;56357;52.304;4.870;2022-12-29T11:37:18;6.50;;;1.10;;
69244;SDS011;56357;52.304;4.870;2022-12-29T11:42:51;6.00;;;1.00;;
69244;SDS011;56357;52.304;4.870;2022-12-29T11:45:21;6.68;;;0.95;;
69244;SDS011;56357;52.304;4.870;2022-12-29T11:47:50;7.53;;;1.90;;
69244;SDS011;56357;52.304;4.870;2022-12-29T11:50:20;7.85;;;0.88;;
69244;SDS011;56357;52.304;4.870;2022-12-29T11:52:49;6.65;;;0.73;;
69244;SDS011;56357;52.304;4.870;2022-12-29T11:55:24;7.00;;;1.02;;
69244;SDS011;56357;52.304;4.870;2022-12-29T11:57:53;8.30;;;1.08;;
69244;SDS011;56357;52.304;4.870;2022-12-29T12:00:23;5.50;;;0.82;;
69244;SDS011;56357;52.304;4.870;2022-12-29T12:02:57;6.32;;;0.82;;
69244;SDS011;56357;52.304;4.870;2022-12-29T12:16:28;6.05;;;0.77;;
69244;SDS011;56357;52.304;4.870;2022-12-29T12:19:04;7.93;;;1.10;;
69244;SDS011;56357;52.304;4.870;2022-12-29T12:21:46;9.75;;;1.15;;
69244;SDS011;56357;52.304;4.870;2022-12-29T12:26:58;5.03;;;0.70;;
69244;SDS011;56357;52.304;4.870;2022-12-29T12:29:32;6.32;;;0.85;;
69244;SDS011;56357;52.304;4.870;2022-12-29T12:32:18;7.40;;;0.80;;
69244;SDS011;56357;52.304;4.870;2022-12-29T12:34:49;6.60;;;0.75;;
69244;SDS011;56357;52.304;4.870;2022-12-29T12:40:03;5.13;;;0.63;;
69244;SDS011;56357;52.304;4.870;2022-12-29T12:50:52;3.97;;;0.50;;
69244;SDS011;56357;52.304;4.870;2022-12-29T12:56:10;5.78;;;0.50;;
69244;SDS011;56357;52.304;4.870;2022-12-29T13:07:13;8.15;;;0.93;;
69244;SDS011;56357;52.304;4.870;2022-12-29T13:27:15;6.57;;;1.02;;
69244;SDS011;56357;52.304;4.870;2022-12-29T13:32:41;11.13;;;1.10;;
69244;SDS011;56357;52.304;4.870;2022-12-29T13:38:01;9.70;;;1.05;;
69244;SDS011;56357;52.304;4.870;2022-12-29T13:40:36;7.55;;;0.90;;
69244;SDS011;56357;52.304;4.870;2022-12-29T13:43:08;7.13;;;1.20;;
69244;SDS011;56357;52.304;4.870;2022-12-29T13:45:35;7.65;;;0.65;;
69244;SDS011;56357;52.304;4.870;2022-12-29T13:48:04;5.55;;;0.88;;
69244;SDS011;56357;52.304;4.870;2022-12-29T13:50:38;5.53;;;0.85;;
69244;SDS011;56357;52.304;4.870;2022-12-29T14:03:49;6.70;;;0.82;;
69244;SDS011;56357;52.304;4.870;2022-12-29T14:09:02;4.30;;;0.57;;
69244;SDS011;56357;52.304;4.870;2022-12-29T14:13:59;5.38;;;1.13;;
69244;SDS011;56357;52.304;4.870;2022-12-29T14:16:38;7.40;;;1.10;;
69244;SDS011;56357;52.304;4.870;2022-12-29T14:19:15;11.80;;;1.17;;
69244;SDS011;56357;52.304;4.870;2022-12-29T14:21:50;8.05;;;0.70;;
69244;SDS011;56357;52.304;4.870;2022-12-29T14:27:01;6.22;;;1.20;;
69244;SDS011;56357;52.304;4.870;2022-12-29T14:29:50;7.28;;;0.93;;
69244;SDS011;56357;52.304;4.870;2022-12-29T14:34:57;6.28;;;0.50;;
69244;SDS011;56357;52.304;4.870;2022-12-29T14:40:14;7.85;;;0.80;;
69244;SDS011;56357;52.304;4.870;2022-12-29T14:42:47;4.50;;;0.70;;
69244;SDS011;56357;52.304;4.870;2022-12-29T14:47:44;8.15;;;1.00;;
69244;SDS011;56357;52.304;4.870;2022-12-29T14:50:25;6.72;;;0.75;;
69244;SDS011;56357;52.304;4.870;2022-12-29T14:53:03;6.63;;;0.90;;
69244;SDS011;56357;52.304;4.870;2022-12-29T14:55:47;7.50;;;1.05;;
69244;SDS011;56357;52.304;4.870;2022-12-29T14:58:22;5.28;;;0.70;;
69244;SDS011;56357;52.304;4.870;2022-12-29T15:00:55;6.55;;;0.70;;
69244;SDS011;56357;52.304;4.870;2022-12-29T15:06:10;5.93;;;0.80;;
69244;SDS011;56357;52.304;4.870;2022-12-29T15:14:02;7.22;;;0.50;;
69244;SDS011;56357;52.304;4.870;2022-12-29T15:16:33;5.88;;;0.80;;
69244;SDS011;56357;52.304;4.870;2022-12-29T15:19:01;6.47;;;0.90;;
69244;SDS011;56357;52.304;4.870;2022-12-29T15:21:30;4.80;;;0.50;;
69244;SDS011;56357;52.304;4.870;2022-12-29T15:23:59;6.22;;;0.60;;
69244;SDS011;56357;52.304;4.870;2022-12-29T15:26:36;6.68;;;1.00;;
69244;SDS011;56357;52.304;4.870;2022-12-29T15:29:04;6.93;;;0.60;;
69244;SDS011;56357;52.304;4.870;2022-12-29T15:31:31;5.53;;;0.60;;
69244;SDS011;56357;52.304;4.870;2022-12-29T15:34:31;5.90;;;0.52;;
69244;SDS011;56357;52.304;4.870;2022-12-29T15:36:50;4.90;;;0.50;;
69244;SDS011;56357;52.304;4.870;2022-12-29T15:39:17;4.75;;;0.70;;
69244;SDS011;56357;52.304;4.870;2022-12-29T15:41:55;6.38;;;0.73;;
69244;SDS011;56357;52.304;4.870;2022-12-29T15:44:28;8.27;;;0.80;;
69244;SDS011;56357;52.304;4.870;2022-12-29T15:47:11;9.63;;;1.05;;
69244;SDS011;56357;52.304;4.870;2022-12-29T15:49:43;7.28;;;0.50;;
69244;SDS011;56357;52.304;4.870;2022-12-29T15:52:13;7.25;;;0.90;;
69244;SDS011;56357;52.304;4.870;2022-12-29T15:54:44;6.68;;;0.75;;
69244;SDS011;56357;52.304;4.870;2022-12-29T15:57:23;6.45;;;0.95;;
69244;SDS011;56357;52.304;4.870;2022-12-29T15:59:52;7.50;;;0.70;;
69244;SDS011;56357;52.304;4.870;2022-12-29T16:02:20;7.80;;;0.70;;
69244;SDS011;56357;52.304;4.870;2022-12-29T16:04:48;6.50;;;0.80;;
69244;SDS011;56357;52.304;4.870;2022-12-29T16:07:28;8.13;;;0.70;;
69244;SDS011;56357;52.304;4.870;2022-12-29T16:10:00;11.18;;;0.82;;
69244;SDS011;56357;52.304;4.870;2022-12-29T16:12:35;6.70;;;1.25;;
69244;SDS011;56357;52.304;4.870;2022-12-29T16:15:04;8.38;;;0.82;;
69244;SDS011;56357;52.304;4.870;2022-12-29T16:17:44;10.43;;;1.75;;
69244;SDS011;56357;52.304;4.870;2022-12-29T16:20:19;12.05;;;1.05;;
69244;SDS011;56357;52.304;4.870;2022-12-29T16:23:20;10.47;;;1.10;;
69244;SDS011;56357;52.304;4.870;2022-12-29T16:25:49;7.00;;;0.80;;
69244;SDS011;56357;52.304;4.870;2022-12-29T16:28:22;11.68;;;1.30;;
69244;SDS011;56357;52.304;4.870;2022-12-29T16:30:58;9.98;;;1.50;;
69244;SDS011;56357;52.304;4.870;2022-12-29T16:33:36;10.00;;;1.27;;
69244;SDS011;56357;52.304;4.870;2022-12-29T16:36:21;11.63;;;1.73;;
69244;SDS011;56357;52.304;4.870;2022-12-29T16:38:49;11.00;;;0.90;;
69244;SDS011;56357;52.304;4.870;2022-12-29T16:41:49;9.07;;;0.80;;
69244;SDS011;56357;52.304;4.870;2022-12-29T16:47:02;9.82;;;1.00;;
69244;SDS011;56357;52.304;4.870;2022-12-29T16:49:32;7.18;;;0.75;;
69244;SDS011;56357;52.304;4.870;2022-12-29T16:52:02;9.93;;;1.05;;
69244;SDS011;56357;52.304;4.870;2022-12-29T16:54:38;6.53;;;1.00;;
69244;SDS011;56357;52.304;4.870;2022-12-29T16:57:06;7.75;;;1.20;;
69244;SDS011;56357;52.304;4.870;2022-12-29T16:59:35;10.70;;;1.10;;
69244;SDS011;56357;52.304;4.870;2022-12-29T17:02:10;9.23;;;0.87;;
69244;SDS011;56357;52.304;4.870;2022-12-29T17:04:41;14.85;;;1.15;;
69244;SDS011;56357;52.304;4.870;2022-12-29T17:07:29;10.93;;;1.10;;
69244;SDS011;56357;52.304;4.870;2022-12-29T17:09:56;10.25;;;1.27;;
69244;SDS011;56357;52.304;4.870;2022-12-29T17:12:24;13.20;;;1.13;;
69244;SDS011;56357;52.304;4.870;2022-12-29T17:14:53;12.10;;;1.10;;
69244;SDS011;56357;52.304;4.870;2022-12-29T17:17:36;10.80;;;1.00;;
69244;SDS011;56357;52.304;4.870;2022-12-29T17:22:46;8.48;;;0.95;;
69244;SDS011;56357;52.304;4.870;2022-12-29T17:25:14;10.23;;;1.00;;
69244;SDS011;56357;52.304;4.870;2022-12-29T17:27:58;11.07;;;1.20;;
69244;SDS011;56357;52.304;4.870;2022-12-29T17:30:49;8.90;;;0.73;;
69244;SDS011;56357;52.304;4.870;2022-12-29T17:33:18;7.85;;;0.90;;
69244;SDS011;56357;52.304;4.870;2022-12-29T17:35:46;11.48;;;1.08;;
69244;SDS011;56357;52.304;4.870;2022-12-29T17:40:53;9.83;;;0.90;;
69244;SDS011;56357;52.304;4.870;2022-12-29T17:43:20;8.23;;;0.95;;
69244;SDS011;56357;52.304;4.870;2022-12-29T17:45:49;8.55;;;1.05;;
69244;SDS011;56357;52.304;4.870;2022-12-29T17:48:18;7.25;;;0.90;;
69244;SDS011;56357;52.304;4.870;2022-12-29T17:50:45;13.60;;;1.33;;
69244;SDS011;56357;52.304;4.870;2022-12-29T17:53:14;10.00;;;1.20;;